Time;durP1;ratioP1;P1;durP2;ratioP2;P2;SDS_P1;SDS_P2;PMS_P1;PMS_P2;Temp;Humidity;BMP_temperature;BMP_pressure;BME280_temperature;BME280_humidity;BME280_pressure;Samples;Min_cycle;Max_cycle;Signal;HPM_P1;HPM_P2
2023/06/03 00:00:53;;;;;;;1.50;0.90;;;;;;;;;;5072253;28;20016;-67
2023/06/03 00:03:20;;;;;;;2.83;1.17;;;;;;;;;;5069405;28;20024;-67
2023/06/03 00:05:45;;;;;;;2.83;1.00;;;;;;;;;;5070837;28;20037;-68
2023/06/03 00:08:11;;;;;;;3.13;1.10;;;;;;;;;;5072564;28;20021;-68
2023/06/03 00:10:36;;;;;;;3.60;1.00;;;;;;;;;;5072784;28;20028;-67
2023/06/03 00:13:01;;;;;;;3.77;1.07;;;;;;;;;;5071576;28;20040;-68
2023/06/03 00:15:26;;;;;;;3.07;0.80;;;;;;;;;;5072558;28;20589;-68
2023/06/03 00:17:52;;;;;;;2.73;1.00;;;;;;;;;;5071956;28;20032;-68
2023/06/03 00:20:17;;;;;;;2.77;1.00;;;;;;;;;;5072077;28;20397;-68
2023/06/03 00:22:42;;;;;;;2.90;1.07;;;;;;;;;;5072958;28;20467;-67
2023/06/03 00:25:08;;;;;;;2.83;0.97;;;;;;;;;;5072126;28;20103;-67
2023/06/03 00:27:34;;;;;;;2.40;0.90;;;;;;;;;;5071910;28;20082;-68
2023/06/03 00:30:00;;;;;;;2.53;1.00;;;;;;;;;;5072435;28;20028;-68
2023/06/03 00:32:25;;;;;;;4.23;1.37;;;;;;;;;;5071917;28;20028;-67
2023/06/03 00:34:51;;;;;;;2.90;1.03;;;;;;;;;;5052777;28;20482;-68
2023/06/03 00:37:16;;;;;;;2.50;0.90;;;;;;;;;;5052460;28;20035;-68
2023/06/03 00:39:41;;;;;;;2.13;1.00;;;;;;;;;;5069348;28;20100;-68
2023/06/03 00:42:07;;;;;;;1.80;0.87;;;;;;;;;;5072753;28;20598;-67
2023/06/03 00:44:32;;;;;;;6.53;1.00;;;;;;;;;;5075273;28;20020;-68
2023/06/03 00:46:58;;;;;;;4.00;1.10;;;;;;;;;;5075973;28;20382;-68
2023/06/03 00:49:23;;;;;;;3.70;1.20;;;;;;;;;;5074419;28;20027;-67
2023/06/03 00:51:48;;;;;;;3.27;1.37;;;;;;;;;;5058229;28;20029;-68
2023/06/03 00:54:14;;;;;;;3.30;1.10;;;;;;;;;;5075589;28;20028;-68
2023/06/03 00:56:43;;;;;;;5.63;1.13;;;;;;;;;;5076270;28;20035;-67
2023/06/03 00:59:10;;;;;;;3.17;1.10;;;;;;;;;;5074686;28;20024;-67
2023/06/03 01:01:54;;;;;;;2.87;1.00;;;;;;;;;;5076415;28;20108;-67
2023/06/03 01:04:25;;;;;;;3.67;1.13;;;;;;;;;;5112643;22;20056;-63
2023/06/03 01:07:16;;;;;;;2.83;1.15;;;;;;;;;;5116622;28;20080;-64
2023/06/03 01:10:11;;;;;;;2.97;1.02;;;;;;;;;;5112567;28;20073;-64
2023/06/03 01:12:56;;;;;;;2.90;1.10;;;;;;;;;;5106573;28;20028;-63
2023/06/03 01:15:23;;;;;;;2.70;1.10;;;;;;;;;;5115910;28;20027;-63
2023/06/03 01:17:57;;;;;;;2.30;1.10;;;;;;;;;;5116331;28;20012;-64
2023/06/03 01:20:26;;;;;;;2.17;1.00;;;;;;;;;;5116108;28;20498;-63
2023/06/03 01:22:56;;;;;;;5.87;1.20;;;;;;;;;;5116619;28;20015;-63
2023/06/03 01:25:23;;;;;;;4.17;1.10;;;;;;;;;;5116201;28;20095;-62
2023/06/03 01:27:48;;;;;;;5.37;1.37;;;;;;;;;;5116183;28;20027;-62
2023/06/03 01:30:15;;;;;;;3.00;1.20;;;;;;;;;;5115273;28;20035;-62
2023/06/03 01:32:42;;;;;;;2.10;1.03;;;;;;;;;;5115988;28;20024;-63
2023/06/03 01:35:08;;;;;;;3.77;1.20;;;;;;;;;;5117545;27;20159;-63
2023/06/03 01:37:34;;;;;;;3.37;1.30;;;;;;;;;;5117960;27;20019;-63
2023/06/03 01:40:00;;;;;;;4.20;1.33;;;;;;;;;;5114850;28;20024;-62
2023/06/03 01:42:26;;;;;;;5.07;1.10;;;;;;;;;;5114673;27;20043;-63
2023/06/03 01:44:51;;;;;;;3.27;1.27;;;;;;;;;;5115877;28;20054;-62
2023/06/03 01:47:17;;;;;;;2.00;1.00;;;;;;;;;;5115773;28;20016;-62
2023/06/03 01:49:42;;;;;;;2.77;1.10;;;;;;;;;;5114848;27;20080;-62
2023/06/03 01:52:07;;;;;;;4.33;1.27;;;;;;;;;;5115673;28;20023;-62
2023/06/03 01:54:33;;;;;;;2.87;1.30;;;;;;;;;;5115126;28;20024;-62
2023/06/03 01:56:58;;;;;;;2.83;1.20;;;;;;;;;;5115832;28;20016;-62
2023/06/03 01:59:24;;;;;;;7.50;1.60;;;;;;;;;;5114803;28;20358;-62
2023/06/03 02:01:51;;;;;;;5.03;1.20;;;;;;;;;;5115544;28;20362;-62
2023/06/03 02:04:16;;;;;;;3.80;1.27;;;;;;;;;;5106990;28;20047;-62
2023/06/03 02:06:46;;;;;;;3.00;1.20;;;;;;;;;;5097325;28;20408;-62
2023/06/03 02:09:11;;;;;;;4.77;1.50;;;;;;;;;;5094929;28;20016;-62
2023/06/03 02:11:36;;;;;;;3.13;1.30;;;;;;;;;;5102273;28;20092;-62
2023/06/03 02:14:02;;;;;;;2.83;1.23;;;;;;;;;;5115256;28;20475;-62
2023/06/03 02:16:27;;;;;;;3.00;1.30;;;;;;;;;;5113538;28;20091;-62
2023/06/03 02:18:54;;;;;;;3.77;1.20;;;;;;;;;;5114843;28;20473;-63
2023/06/03 02:21:20;;;;;;;3.50;1.50;;;;;;;;;;5112417;28;20099;-62
2023/06/03 02:23:45;;;;;;;3.37;1.30;;;;;;;;;;5115411;28;20076;-62
2023/06/03 02:26:13;;;;;;;7.03;1.30;;;;;;;;;;5115289;28;20026;-61
2023/06/03 02:28:39;;;;;;;4.17;1.27;;;;;;;;;;5114954;28;20016;-62
2023/06/03 02:31:04;;;;;;;4.37;1.40;;;;;;;;;;5112871;28;20034;-62
2023/06/03 02:33:29;;;;;;;2.37;1.10;;;;;;;;;;5114852;28;20108;-62
2023/06/03 02:35:55;;;;;;;5.13;1.50;;;;;;;;;;5111223;28;20019;-61
2023/06/03 02:38:20;;;;;;;5.33;1.53;;;;;;;;;;5112928;28;20457;-62
2023/06/03 02:40:45;;;;;;;3.30;1.40;;;;;;;;;;5107559;28;20477;-61
2023/06/03 02:43:11;;;;;;;3.30;1.30;;;;;;;;;;5114656;28;20041;-62
2023/06/03 02:45:36;;;;;;;2.87;1.30;;;;;;;;;;5114714;28;20012;-62
2023/06/03 02:48:01;;;;;;;3.33;1.53;;;;;;;;;;5114860;27;20080;-62
2023/06/03 02:50:26;;;;;;;3.13;1.30;;;;;;;;;;5111362;28;20035;-62
2023/06/03 02:52:52;;;;;;;3.33;1.40;;;;;;;;;;5114529;28;20029;-62
2023/06/03 02:55:17;;;;;;;3.73;1.30;;;;;;;;;;5114687;28;20028;-62
2023/06/03 02:57:42;;;;;;;3.80;1.50;;;;;;;;;;5103634;28;20389;-61
2023/06/03 03:00:11;;;;;;;4.03;1.73;;;;;;;;;;5098662;28;20012;-66
2023/06/03 03:02:37;;;;;;;3.10;1.57;;;;;;;;;;5112997;28;20468;-62
2023/06/03 03:05:02;;;;;;;8.13;1.80;;;;;;;;;;5108092;28;20045;-62
2023/06/03 03:07:28;;;;;;;2.93;1.23;;;;;;;;;;5113782;28;20019;-62
2023/06/03 03:09:53;;;;;;;6.23;1.63;;;;;;;;;;5111956;28;20020;-62
2023/06/03 03:12:19;;;;;;;2.90;1.40;;;;;;;;;;5094065;28;20022;-62
2023/06/03 03:14:44;;;;;;;4.20;1.60;;;;;;;;;;5108113;28;20051;-62
2023/06/03 03:17:10;;;;;;;4.13;1.50;;;;;;;;;;5114307;28;20047;-62
2023/06/03 03:19:35;;;;;;;2.47;1.27;;;;;;;;;;5110359;28;20469;-62
2023/06/03 03:22:01;;;;;;;2.93;1.40;;;;;;;;;;5114265;28;20016;-62
2023/06/03 03:24:27;;;;;;;3.30;1.37;;;;;;;;;;5113970;28;20012;-61
2023/06/03 03:26:52;;;;;;;5.20;1.30;;;;;;;;;;5111925;28;20468;-62
2023/06/03 03:29:18;;;;;;;3.27;1.20;;;;;;;;;;5113912;28;20063;-62
2023/06/03 03:31:44;;;;;;;3.13;1.40;;;;;;;;;;5114043;28;20024;-61
2023/06/03 03:34:09;;;;;;;2.87;1.30;;;;;;;;;;5110614;28;20035;-62
2023/06/03 03:36:36;;;;;;;3.10;1.40;;;;;;;;;;5114031;28;20122;-62
2023/06/03 03:39:05;;;;;;;4.57;1.40;;;;;;;;;;5093155;28;20039;-62
2023/06/03 03:41:30;;;;;;;3.73;1.37;;;;;;;;;;5105037;28;20483;-61
2023/06/03 03:43:56;;;;;;;4.03;1.33;;;;;;;;;;5112097;28;20012;-62
2023/06/03 03:46:21;;;;;;;4.10;1.40;;;;;;;;;;5113552;28;20026;-62
2023/06/03 03:48:47;;;;;;;5.17;1.40;;;;;;;;;;5113653;28;20028;-62
2023/06/03 03:51:13;;;;;;;4.47;1.40;;;;;;;;;;5109371;28;20024;-62
2023/06/03 03:53:42;;;;;;;3.70;1.40;;;;;;;;;;5113877;28;20027;-62
2023/06/03 03:56:08;;;;;;;4.80;1.43;;;;;;;;;;5111751;28;20041;-62
2023/06/03 03:58:43;;;;;;;3.03;1.50;;;;;;;;;;5110075;28;20016;-61
2023/06/03 04:01:23;;;;;;;6.63;1.37;;;;;;;;;;5110034;28;20024;-62
2023/06/03 04:03:50;;;;;;;3.27;1.40;;;;;;;;;;5092742;28;20028;-61
2023/06/03 04:06:45;;;;;;;9.23;1.63;;;;;;;;;;5103833;28;20027;-61
2023/06/03 04:09:13;;;;;;;4.33;1.70;;;;;;;;;;5103271;28;20036;-63
2023/06/03 04:11:41;;;;;;;3.57;1.60;;;;;;;;;;5113769;28;20404;-61
2023/06/03 04:14:08;;;;;;;3.13;1.50;;;;;;;;;;5113258;28;20107;-61
2023/06/03 04:16:54;;;;;;;3.23;1.60;;;;;;;;;;5111944;28;20023;-62
2023/06/03 04:19:27;;;;;;;5.43;1.77;;;;;;;;;;5117812;28;20540;-62
2023/06/03 04:21:53;;;;;;;4.40;1.60;;;;;;;;;;5112278;28;20031;-62
2023/06/03 04:24:18;;;;;;;3.47;1.40;;;;;;;;;;5117391;28;20024;-62
2023/06/03 04:26:43;;;;;;;4.27;1.37;;;;;;;;;;5115309;28;20076;-62
2023/06/03 04:29:09;;;;;;;3.37;1.30;;;;;;;;;;5116657;28;20418;-62
2023/06/03 04:31:35;;;;;;;4.10;1.43;;;;;;;;;;5117632;28;20114;-62
2023/06/03 04:34:00;;;;;;;3.83;1.40;;;;;;;;;;5117525;28;20047;-62
2023/06/03 04:36:25;;;;;;;2.87;1.30;;;;;;;;;;5113426;28;20032;-62
2023/06/03 04:38:51;;;;;;;5.07;1.30;;;;;;;;;;5117080;28;20094;-62
2023/06/03 04:41:16;;;;;;;4.63;1.37;;;;;;;;;;5117392;28;20091;-62
2023/06/03 04:43:45;;;;;;;3.63;1.30;;;;;;;;;;5107671;28;20031;-62
2023/06/03 04:46:10;;;;;;;4.23;1.30;;;;;;;;;;5107115;28;20557;-61
2023/06/03 04:48:36;;;;;;;2.70;1.27;;;;;;;;;;5115751;28;20106;-60
2023/06/03 04:51:06;;;;;;;5.07;1.20;;;;;;;;;;5113361;27;20471;-62
2023/06/03 04:53:31;;;;;;;2.77;1.30;;;;;;;;;;5117209;28;20491;-61
2023/06/03 04:55:57;;;;;;;3.43;1.23;;;;;;;;;;5113486;28;20035;-61
2023/06/03 04:58:22;;;;;;;3.23;1.20;;;;;;;;;;5116749;28;20011;-62
2023/06/03 05:00:48;;;;;;;3.77;1.47;;;;;;;;;;5117003;28;20040;-61
2023/06/03 05:03:16;;;;;;;3.00;1.00;;;;;;;;;;5114679;28;20487;-61
2023/06/03 05:05:42;;;;;;;2.67;1.20;;;;;;;;;;5106705;28;20051;-62
2023/06/03 05:08:07;;;;;;;5.65;1.20;;;;;;;;;;5095958;28;20067;-62
2023/06/03 05:10:34;;;;;;;2.92;1.30;;;;;;;;;;5096412;28;20020;-61
2023/06/03 05:12:59;;;;;;;5.03;1.23;;;;;;;;;;5096393;28;20020;-62
2023/06/03 05:15:25;;;;;;;3.55;1.27;;;;;;;;;;5095960;28;20576;-62
2023/06/03 05:17:51;;;;;;;3.45;1.27;;;;;;;;;;5112124;28;20016;-62
2023/06/03 05:20:16;;;;;;;4.63;1.40;;;;;;;;;;5113069;28;20495;-62
2023/06/03 05:22:41;;;;;;;5.40;1.20;;;;;;;;;;5113149;28;20015;-62
2023/06/03 05:25:07;;;;;;;4.18;1.30;;;;;;;;;;5095798;28;20095;-61
2023/06/03 05:27:32;;;;;;;5.10;1.20;;;;;;;;;;5095847;28;20030;-62
2023/06/03 05:29:58;;;;;;;3.60;1.25;;;;;;;;;;5094927;28;20099;-62
2023/06/03 05:32:23;;;;;;;2.50;1.30;;;;;;;;;;5095107;28;20020;-62
2023/06/03 05:34:48;;;;;;;2.85;1.17;;;;;;;;;;5108653;28;20023;-63
2023/06/03 05:37:14;;;;;;;3.40;1.20;;;;;;;;;;5116279;28;20016;-63
2023/06/03 05:39:39;;;;;;;3.00;1.10;;;;;;;;;;5114263;28;20385;-62
2023/06/03 05:42:04;;;;;;;4.03;1.20;;;;;;;;;;5112846;28;20116;-62
2023/06/03 05:44:30;;;;;;;5.32;1.02;;;;;;;;;;5115930;28;20019;-63
2023/06/03 05:46:55;;;;;;;3.47;1.17;;;;;;;;;;5114162;28;20051;-63
2023/06/03 05:49:20;;;;;;;2.95;1.20;;;;;;;;;;5112475;28;20022;-63
2023/06/03 05:51:46;;;;;;;2.55;1.10;;;;;;;;;;5115710;28;20046;-63
2023/06/03 05:54:12;;;;;;;4.18;1.10;;;;;;;;;;5112756;28;20432;-64
2023/06/03 05:56:37;;;;;;;3.38;1.20;;;;;;;;;;5100134;28;20063;-63
2023/06/03 05:59:02;;;;;;;5.20;1.45;;;;;;;;;;5083106;28;20016;-63
2023/06/03 06:01:28;;;;;;;4.38;1.25;;;;;;;;;;5075045;28;20020;-63
2023/06/03 06:03:54;;;;;;;5.82;1.30;;;;;;;;;;5097230;28;20028;-63
2023/06/03 06:06:19;;;;;;;2.42;1.10;;;;;;;;;;5095049;28;20016;-63
2023/06/03 06:08:45;;;;;;;3.25;1.33;;;;;;;;;;5095359;28;20020;-63
2023/06/03 06:11:10;;;;;;;2.75;1.10;;;;;;;;;;5100142;28;20046;-63
2023/06/03 06:13:35;;;;;;;2.67;1.10;;;;;;;;;;5095940;27;20098;-63
2023/06/03 06:16:01;;;;;;;2.67;1.15;;;;;;;;;;5094778;28;20052;-63
2023/06/03 06:18:27;;;;;;;3.28;1.20;;;;;;;;;;5101277;28;20533;-63
2023/06/03 06:20:52;;;;;;;4.32;1.27;;;;;;;;;;5111660;28;20016;-63
2023/06/03 06:23:17;;;;;;;3.35;1.15;;;;;;;;;;5115392;28;20679;-63
2023/06/03 06:25:50;;;;;;;5.22;1.20;;;;;;;;;;5115379;28;20023;-63
2023/06/03 06:28:19;;;;;;;4.13;1.15;;;;;;;;;;5112842;28;20129;-64
2023/06/03 06:30:44;;;;;;;3.30;1.23;;;;;;;;;;5114818;28;20132;-64
2023/06/03 06:33:11;;;;;;;2.35;1.00;;;;;;;;;;5111795;28;20038;-63
2023/06/03 06:35:37;;;;;;;2.75;1.35;;;;;;;;;;5114744;28;20027;-63
2023/06/03 06:38:02;;;;;;;8.35;1.40;;;;;;;;;;5113399;28;20023;-64
2023/06/03 06:40:30;;;;;;;5.22;1.23;;;;;;;;;;5112656;28;20023;-63
2023/06/03 06:42:55;;;;;;;6.28;1.40;;;;;;;;;;5115072;28;20495;-63
2023/06/03 06:45:28;;;;;;;4.10;1.30;;;;;;;;;;5114859;28;20015;-63
2023/06/03 06:48:05;;;;;;;3.78;1.20;;;;;;;;;;5100684;28;20665;-63
2023/06/03 06:50:59;;;;;;;3.28;1.15;;;;;;;;;;5114401;27;20020;-63
2023/06/03 06:53:26;;;;;;;2.88;1.10;;;;;;;;;;5113263;28;20031;-63
2023/06/03 06:56:04;;;;;;;2.72;0.95;;;;;;;;;;5112673;28;20065;-63
2023/06/03 06:58:34;;;;;;;2.67;0.90;;;;;;;;;;5113156;28;20099;-63
2023/06/03 07:01:00;;;;;;;2.28;0.80;;;;;;;;;;5114420;28;20023;-64
2023/06/03 07:03:26;;;;;;;2.35;0.77;;;;;;;;;;5110437;28;20412;-63
2023/06/03 07:05:54;;;;;;;4.20;0.98;;;;;;;;;;5096545;28;20023;-63
2023/06/03 07:08:23;;;;;;;1.83;0.80;;;;;;;;;;5114458;28;20399;-63
2023/06/03 07:10:48;;;;;;;2.55;0.90;;;;;;;;;;5114464;28;20054;-63
2023/06/03 07:13:17;;;;;;;2.72;0.95;;;;;;;;;;5114166;28;20465;-63
2023/06/03 07:15:43;;;;;;;2.05;0.82;;;;;;;;;;5111603;28;20020;-63
2023/06/03 07:18:12;;;;;;;3.15;0.80;;;;;;;;;;5090639;28;20521;-64
2023/06/03 07:20:41;;;;;;;0.93;0.50;;;;;;;;;;5111907;28;20015;-62
2023/06/03 07:23:07;;;;;;;4.05;0.80;;;;;;;;;;5113820;28;20384;-62
2023/06/03 07:25:53;;;;;;;2.50;1.00;;;;;;;;;;5113200;28;20027;-64
2023/06/03 07:28:29;;;;;;;1.80;0.70;;;;;;;;;;5072855;28;20478;-62
2023/06/03 07:30:54;;;;;;;1.98;0.77;;;;;;;;;;5074913;28;20584;-63
2023/06/03 07:33:30;;;;;;;3.45;0.70;;;;;;;;;;5093990;28;20115;-64
2023/06/03 07:35:56;;;;;;;4.18;0.90;;;;;;;;;;5112996;28;20024;-62
2023/06/03 07:38:56;;;;;;;2.20;0.80;;;;;;;;;;5113701;28;20023;-62
2023/06/03 07:41:40;;;;;;;2.70;0.80;;;;;;;;;;5031041;28;20017;-63
2023/06/03 07:44:09;;;;;;;2.05;0.75;;;;;;;;;;5047765;28;20094;-62
2023/06/03 07:46:41;;;;;;;5.57;0.80;;;;;;;;;;5050975;28;20479;-63
2023/06/03 07:49:09;;;;;;;1.90;0.73;;;;;;;;;;5049056;28;20033;-63
2023/06/03 07:51:34;;;;;;;2.28;0.90;;;;;;;;;;5050735;28;20025;-63
2023/06/03 07:54:00;;;;;;;2.22;1.00;;;;;;;;;;5050549;28;20387;-63
2023/06/03 07:56:26;;;;;;;2.20;0.63;;;;;;;;;;5049881;28;20044;-62
2023/06/03 07:58:51;;;;;;;2.92;0.80;;;;;;;;;;5050740;28;20029;-63
2023/06/03 08:01:17;;;;;;;2.15;0.75;;;;;;;;;;5048316;28;20139;-65
2023/06/03 08:03:42;;;;;;;1.75;0.80;;;;;;;;;;5056239;28;20383;-63
2023/06/03 08:06:08;;;;;;;1.50;0.60;;;;;;;;;;5048845;28;20051;-63
2023/06/03 08:08:33;;;;;;;2.72;0.90;;;;;;;;;;5049153;28;20040;-63
2023/06/03 08:11:00;;;;;;;1.90;0.68;;;;;;;;;;5050668;28;20104;-63
2023/06/03 08:13:25;;;;;;;1.95;0.70;;;;;;;;;;5070452;28;20025;-62
2023/06/03 08:15:51;;;;;;;2.25;0.82;;;;;;;;;;5072146;28;20037;-62
2023/06/03 08:18:36;;;;;;;1.95;0.77;;;;;;;;;;5074587;28;20077;-63
2023/06/03 08:21:02;;;;;;;1.77;0.80;;;;;;;;;;5092390;28;20024;-63
2023/06/03 08:23:27;;;;;;;1.90;0.70;;;;;;;;;;5093180;28;20047;-62
2023/06/03 08:25:53;;;;;;;2.47;0.80;;;;;;;;;;5093111;28;20474;-62
2023/06/03 08:28:18;;;;;;;5.55;0.82;;;;;;;;;;5093157;28;20020;-62
2023/06/03 08:30:43;;;;;;;2.95;0.80;;;;;;;;;;5099514;28;20031;-61
2023/06/03 08:33:08;;;;;;;1.63;0.60;;;;;;;;;;5113345;28;20401;-62
2023/06/03 08:35:34;;;;;;;1.08;0.60;;;;;;;;;;5109895;28;20031;-62
2023/06/03 08:37:59;;;;;;;1.95;0.63;;;;;;;;;;5113408;28;20480;-62
2023/06/03 08:40:25;;;;;;;3.65;0.65;;;;;;;;;;5110386;28;20368;-63
2023/06/03 08:42:52;;;;;;;1.85;0.70;;;;;;;;;;5093589;28;20016;-62
2023/06/03 08:45:19;;;;;;;2.78;0.70;;;;;;;;;;5093905;28;20072;-64
2023/06/03 08:48:04;;;;;;;1.98;0.50;;;;;;;;;;5072788;28;20054;-62
2023/06/03 08:50:31;;;;;;;3.53;0.70;;;;;;;;;;5105483;28;20020;-62
2023/06/03 08:52:57;;;;;;;2.05;0.57;;;;;;;;;;5113279;28;20030;-62
2023/06/03 08:55:22;;;;;;;1.90;0.60;;;;;;;;;;5113098;28;20464;-63
2023/06/03 08:57:51;;;;;;;2.47;0.50;;;;;;;;;;5112844;28;20502;-62
2023/06/03 09:00:21;;;;;;;1.55;0.60;;;;;;;;;;5111582;28;20046;-63
2023/06/03 09:02:47;;;;;;;7.30;0.70;;;;;;;;;;5112789;28;20023;-62
2023/06/03 09:05:12;;;;;;;2.58;1.02;;;;;;;;;;5111131;28;20057;-62
2023/06/03 09:07:38;;;;;;;1.63;0.68;;;;;;;;;;5116688;27;20119;-61
2023/06/03 09:10:04;;;;;;;2.33;0.70;;;;;;;;;;5116791;28;20413;-63
2023/06/03 09:12:30;;;;;;;2.10;0.80;;;;;;;;;;5114929;28;20031;-62
2023/06/03 09:14:56;;;;;;;2.45;0.77;;;;;;;;;;5107436;28;20103;-62
2023/06/03 09:17:24;;;;;;;3.30;0.57;;;;;;;;;;5096297;28;20070;-62
2023/06/03 09:19:50;;;;;;;1.17;0.40;;;;;;;;;;5095547;28;20020;-58
2023/06/03 09:22:16;;;;;;;1.55;0.63;;;;;;;;;;5096118;28;20020;-59
2023/06/03 09:24:42;;;;;;;1.88;0.40;;;;;;;;;;5096135;28;20016;-59
2023/06/03 09:27:07;;;;;;;1.95;0.60;;;;;;;;;;5099393;28;20433;-59
2023/06/03 09:29:32;;;;;;;1.08;0.57;;;;;;;;;;5116364;27;20019;-59
2023/06/03 09:31:58;;;;;;;1.55;0.60;;;;;;;;;;5116170;28;20024;-59
2023/06/03 09:34:25;;;;;;;1.80;0.70;;;;;;;;;;5113158;28;20052;-59
2023/06/03 09:36:50;;;;;;;3.42;1.10;;;;;;;;;;5112940;28;20528;-59
2023/06/03 09:39:18;;;;;;;4.68;0.80;;;;;;;;;;5115761;28;20104;-60
2023/06/03 09:41:44;;;;;;;1.63;0.63;;;;;;;;;;5102738;28;20412;-59
2023/06/03 09:44:10;;;;;;;2.13;0.80;;;;;;;;;;5102829;28;20018;-59
2023/06/03 09:46:36;;;;;;;2.88;0.70;;;;;;;;;;5115261;28;20032;-59
2023/06/03 09:49:16;;;;;;;5.20;0.70;;;;;;;;;;5116102;28;20026;-59
2023/06/03 09:51:42;;;;;;;2.65;0.60;;;;;;;;;;5095046;28;20028;-59
2023/06/03 09:54:14;;;;;;;1.27;0.57;;;;;;;;;;5108215;28;20035;-59
2023/06/03 09:56:41;;;;;;;1.77;0.55;;;;;;;;;;5114727;28;20023;-59
2023/06/03 09:59:20;;;;;;;1.83;0.55;;;;;;;;;;5112787;28;20423;-59
2023/06/03 10:01:47;;;;;;;2.42;0.60;;;;;;;;;;5115561;28;20112;-59
2023/06/03 10:04:14;;;;;;;3.03;0.90;;;;;;;;;;5115202;27;20035;-59
2023/06/03 10:06:40;;;;;;;2.25;0.70;;;;;;;;;;5108862;28;20481;-59
2023/06/03 10:09:19;;;;;;;3.17;1.25;;;;;;;;;;5115701;28;20489;-60
2023/06/03 10:11:45;;;;;;;2.35;0.60;;;;;;;;;;5098079;27;20449;-59
2023/06/03 10:14:10;;;;;;;2.20;0.80;;;;;;;;;;5094867;28;20016;-59
2023/06/03 10:16:36;;;;;;;3.30;0.80;;;;;;;;;;5109332;28;20032;-60
2023/06/03 10:19:01;;;;;;;1.48;0.43;;;;;;;;;;5115487;28;20026;-60
2023/06/03 10:21:28;;;;;;;2.25;0.70;;;;;;;;;;5110336;28;20103;-59
2023/06/03 10:23:55;;;;;;;1.42;0.60;;;;;;;;;;5115423;28;20011;-59
2023/06/03 10:26:21;;;;;;;1.88;0.85;;;;;;;;;;5111122;28;20024;-61
2023/06/03 10:28:48;;;;;;;1.45;0.65;;;;;;;;;;5109436;28;20024;-59
2023/06/03 10:31:14;;;;;;;1.25;0.60;;;;;;;;;;5115289;28;20027;-59
2023/06/03 10:33:40;;;;;;;1.52;0.63;;;;;;;;;;5115155;28;20471;-59
2023/06/03 10:36:06;;;;;;;1.80;0.60;;;;;;;;;;5109239;28;20102;-59
2023/06/03 10:38:32;;;;;;;3.65;0.63;;;;;;;;;;5115048;28;20381;-62
2023/06/03 10:40:58;;;;;;;0.65;0.40;;;;;;;;;;5112188;28;20060;-56
2023/06/03 10:43:24;;;;;;;1.58;0.47;;;;;;;;;;5114692;28;20138;-59
2023/06/03 10:45:51;;;;;;;2.60;0.80;;;;;;;;;;5113179;27;20114;-59
2023/06/03 10:48:17;;;;;;;2.55;0.68;;;;;;;;;;5114867;28;20459;-58
2023/06/03 10:51:09;;;;;;;1.92;0.70;;;;;;;;;;5109566;28;20061;-59
2023/06/03 10:54:02;;;;;;;1.75;0.60;;;;;;;;;;5113921;28;20495;-58
2023/06/03 10:56:31;;;;;;;2.63;0.68;;;;;;;;;;5110957;28;20043;-60
2023/06/03 10:59:02;;;;;;;2.20;0.90;;;;;;;;;;5114725;27;20090;-59
2023/06/03 11:01:46;;;;;;;3.90;0.80;;;;;;;;;;5112544;28;20469;-59
2023/06/03 11:04:15;;;;;;;1.70;0.60;;;;;;;;;;5114207;28;20513;-59
2023/06/03 11:06:41;;;;;;;2.90;0.70;;;;;;;;;;5109608;28;20027;-59
2023/06/03 11:09:08;;;;;;;1.55;0.57;;;;;;;;;;5114502;28;20023;-58
2023/06/03 11:12:04;;;;;;;2.55;0.77;;;;;;;;;;5112887;28;20036;-59
2023/06/03 11:14:49;;;;;;;2.40;0.75;;;;;;;;;;5110496;28;20496;-60
2023/06/03 11:17:15;;;;;;;1.58;0.55;;;;;;;;;;5093364;28;20409;-59
2023/06/03 11:19:49;;;;;;;1.98;0.68;;;;;;;;;;5093917;28;20099;-58
2023/06/03 11:22:50;;;;;;;2.35;0.70;;;;;;;;;;5108094;28;20027;-59
2023/06/03 11:25:25;;;;;;;2.38;0.80;;;;;;;;;;5071268;28;20563;-59
2023/06/03 11:27:50;;;;;;;2.70;0.90;;;;;;;;;;5052903;28;20052;-59
2023/06/03 11:30:15;;;;;;;2.58;0.75;;;;;;;;;;5051463;28;20029;-59
2023/06/03 11:32:40;;;;;;;4.53;1.02;;;;;;;;;;5069119;28;20029;-58
2023/06/03 11:35:26;;;;;;;4.13;0.90;;;;;;;;;;5050729;28;20027;-60
2023/06/03 11:37:52;;;;;;;7.15;2.47;;;;;;;;;;5070368;28;20055;-58
2023/06/03 11:40:19;;;;;;;5.00;0.90;;;;;;;;;;5061225;28;20042;-59
2023/06/03 11:43:07;;;;;;;3.42;1.60;;;;;;;;;;5070081;28;20061;-59
2023/06/03 11:45:33;;;;;;;2.72;0.80;;;;;;;;;;5063135;28;20526;-58
2023/06/03 11:48:05;;;;;;;3.03;0.82;;;;;;;;;;5062696;28;20158;-59
2023/06/03 11:50:43;;;;;;;2.55;0.60;;;;;;;;;;5068663;28;20401;-59
2023/06/03 11:53:08;;;;;;;4.80;1.00;;;;;;;;;;5050742;28;20039;-59
2023/06/03 11:55:35;;;;;;;1.88;0.80;;;;;;;;;;5050722;28;20029;-59
2023/06/03 11:58:08;;;;;;;5.10;0.80;;;;;;;;;;5055269;28;20095;-59
2023/06/03 12:00:33;;;;;;;1.25;0.70;;;;;;;;;;5105243;28;20484;-58
2023/06/03 12:02:59;;;;;;;1.45;0.60;;;;;;;;;;5093294;28;20012;-58
2023/06/03 12:05:24;;;;;;;1.27;0.60;;;;;;;;;;5093422;28;20118;-59
2023/06/03 12:07:56;;;;;;;2.25;0.80;;;;;;;;;;5109721;28;20040;-59
2023/06/03 12:10:21;;;;;;;2.30;0.70;;;;;;;;;;5109892;28;20015;-59
2023/06/03 12:12:51;;;;;;;2.70;0.70;;;;;;;;;;5092985;28;20077;-59
2023/06/03 12:15:16;;;;;;;2.28;1.20;;;;;;;;;;5092986;28;20028;-59
2023/06/03 12:17:41;;;;;;;5.40;0.73;;;;;;;;;;5109522;28;20038;-60
2023/06/03 12:20:07;;;;;;;3.63;1.30;;;;;;;;;;5113212;28;20072;-59
2023/06/03 12:22:33;;;;;;;2.30;0.70;;;;;;;;;;5107410;28;20039;-60
2023/06/03 12:24:58;;;;;;;3.95;0.80;;;;;;;;;;5112403;28;20024;-59
2023/06/03 12:27:25;;;;;;;1.90;0.50;;;;;;;;;;5113491;28;20020;-58
2023/06/03 12:29:53;;;;;;;1.90;0.65;;;;;;;;;;5113509;28;20027;-59
2023/06/03 12:32:18;;;;;;;2.78;0.73;;;;;;;;;;5111173;28;20027;-59
2023/06/03 12:34:44;;;;;;;1.45;0.70;;;;;;;;;;5113087;28;20373;-60
2023/06/03 12:37:09;;;;;;;3.50;0.73;;;;;;;;;;5108536;28;20103;-59
2023/06/03 12:39:39;;;;;;;3.05;0.70;;;;;;;;;;5111553;28;20007;-60
2023/06/03 12:42:04;;;;;;;2.47;0.60;;;;;;;;;;5100715;28;20417;-59
2023/06/03 12:44:30;;;;;;;1.38;0.70;;;;;;;;;;5117364;28;20027;-59
2023/06/03 12:47:02;;;;;;;1.27;0.60;;;;;;;;;;5116534;27;20035;-59
2023/06/03 12:49:27;;;;;;;2.90;0.65;;;;;;;;;;5116223;28;20034;-67
2023/06/03 12:51:53;;;;;;;1.73;0.73;;;;;;;;;;5112047;28;20024;-66
2023/06/03 12:54:18;;;;;;;1.92;0.70;;;;;;;;;;5117070;28;20473;-68
2023/06/03 12:56:43;;;;;;;5.55;0.90;;;;;;;;;;5117105;28;20358;-68
2023/06/03 12:59:09;;;;;;;2.72;0.70;;;;;;;;;;5116656;28;20473;-68
2023/06/03 13:01:34;;;;;;;2.08;0.80;;;;;;;;;;5115438;28;20016;-68
2023/06/03 13:04:00;;;;;;;3.30;1.30;;;;;;;;;;5116486;28;20500;-68
2023/06/03 13:06:25;;;;;;;2.70;0.80;;;;;;;;;;5116751;28;20107;-69
2023/06/03 13:08:51;;;;;;;2.63;0.70;;;;;;;;;;5110161;28;20023;-68
2023/06/03 13:11:17;;;;;;;1.42;0.50;;;;;;;;;;5116487;28;20049;-67
2023/06/03 13:13:42;;;;;;;3.38;0.80;;;;;;;;;;5114500;28;20038;-68
2023/06/03 13:16:08;;;;;;;1.38;0.55;;;;;;;;;;5099915;28;20024;-66
2023/06/03 13:18:33;;;;;;;2.25;0.80;;;;;;;;;;5095999;28;20044;-66
2023/06/03 13:20:58;;;;;;;2.85;0.73;;;;;;;;;;5096165;28;20062;-67
2023/06/03 13:23:24;;;;;;;2.58;0.80;;;;;;;;;;5104852;28;20020;-68
2023/06/03 13:25:49;;;;;;;1.60;0.70;;;;;;;;;;5103541;28;20035;-66
2023/06/03 13:28:15;;;;;;;1.85;0.75;;;;;;;;;;5096025;28;20016;-67
2023/06/03 13:30:40;;;;;;;2.38;0.70;;;;;;;;;;5096046;28;20474;-66
2023/06/03 13:33:06;;;;;;;2.47;0.82;;;;;;;;;;5104209;28;20020;-66
2023/06/03 13:35:31;;;;;;;2.88;0.77;;;;;;;;;;5116201;28;20028;-66
2023/06/03 13:37:56;;;;;;;1.45;0.70;;;;;;;;;;5111518;28;20031;-67
2023/06/03 13:40:22;;;;;;;1.48;0.82;;;;;;;;;;5115873;28;20029;-66
2023/06/03 13:42:48;;;;;;;2.92;0.80;;;;;;;;;;5114685;28;20019;-68
2023/06/03 13:45:13;;;;;;;4.05;0.65;;;;;;;;;;5115952;28;20530;-68
2023/06/03 13:47:38;;;;;;;1.88;0.80;;;;;;;;;;5115844;28;20028;-68
2023/06/03 13:50:04;;;;;;;4.40;0.80;;;;;;;;;;5108815;28;20071;-71
2023/06/03 13:52:30;;;;;;;3.13;0.80;;;;;;;;;;5111599;28;20465;-69
2023/06/03 13:54:55;;;;;;;2.50;0.68;;;;;;;;;;5096552;27;20028;-69
2023/06/03 13:57:20;;;;;;;2.60;0.70;;;;;;;;;;5095274;28;20031;-71
2023/06/03 13:59:48;;;;;;;4.63;0.80;;;;;;;;;;5095332;28;20534;-72
2023/06/03 14:02:13;;;;;;;3.08;0.90;;;;;;;;;;5110581;28;20023;-73
2023/06/03 14:04:39;;;;;;;2.75;0.80;;;;;;;;;;5094820;28;20044;-71
2023/06/03 14:07:05;;;;;;;1.40;0.60;;;;;;;;;;5100867;28;20015;-68
2023/06/03 14:09:31;;;;;;;1.33;0.50;;;;;;;;;;5105215;28;20081;-69
2023/06/03 14:11:57;;;;;;;4.55;1.08;;;;;;;;;;5094991;28;20016;-70
2023/06/03 14:14:22;;;;;;;3.65;0.80;;;;;;;;;;5095098;28;20461;-69
2023/06/03 14:16:47;;;;;;;1.25;0.60;;;;;;;;;;5095072;28;20089;-67
2023/06/03 14:19:13;;;;;;;2.88;0.75;;;;;;;;;;5106193;28;20058;-68
2023/06/03 14:21:38;;;;;;;3.20;0.80;;;;;;;;;;5115478;28;20090;-70
2023/06/03 14:24:03;;;;;;;3.80;0.95;;;;;;;;;;5106887;28;20023;-68
2023/06/03 14:26:35;;;;;;;1.17;0.57;;;;;;;;;;5115356;28;20047;-69
2023/06/03 14:29:00;;;;;;;2.63;0.95;;;;;;;;;;5105132;27;20019;-70
2023/06/03 14:31:25;;;;;;;2.50;0.70;;;;;;;;;;5115059;28;20073;-71
2023/06/03 14:33:51;;;;;;;4.15;0.70;;;;;;;;;;5112219;28;20019;-69
2023/06/03 14:36:16;;;;;;;1.50;0.63;;;;;;;;;;5114694;28;20024;-70
2023/06/03 14:38:41;;;;;;;0.98;0.57;;;;;;;;;;5110330;28;20012;-69
2023/06/03 14:41:07;;;;;;;1.67;0.55;;;;;;;;;;5104725;28;20072;-70
2023/06/03 14:43:33;;;;;;;1.60;0.70;;;;;;;;;;5112941;28;20015;-68
2023/06/03 14:45:58;;;;;;;4.72;1.00;;;;;;;;;;5096108;28;20035;-68